Time;durP1;ratioP1;P1;durP2;ratioP2;P2;SDS_P1;SDS_P2;PMS_P1;PMS_P2;Temp;Humidity;BMP_temperature;BMP_pressure;BME280_temperature;BME280_humidity;BME280_pressure;Samples;Min_cycle;Max_cycle;Signal;HPM_P1;HPM_P2
2022/08/29 00:01:35;;;;;;;5.10;4.70;;;15.80;1.00;;;;;;6281003;28;20246;-55
2022/08/29 00:04:38;;;;;;;8.57;5.03;;;15.80;1.00;;;;;;6276635;28;20234;-54
2022/08/29 00:07:41;;;;;;;7.50;4.90;;;15.70;1.00;;;;;;6277990;28;20229;-55
2022/08/29 00:10:52;;;;;;;5.00;4.53;;;15.80;1.00;;;;;;6282683;28;20245;-56
2022/08/29 00:13:58;;;;;;;9.87;5.37;;;15.70;1.00;;;;;;6280145;28;20340;-55
2022/08/29 00:17:01;;;;;;;10.83;5.13;;;15.70;1.00;;;;;;6277894;28;20230;-56
2022/08/29 00:20:05;;;;;;;5.93;5.03;;;15.70;1.00;;;;;;6284486;28;20660;-55
2022/08/29 00:23:09;;;;;;;13.37;5.80;;;15.60;1.00;;;;;;6281002;28;20722;-53
2022/08/29 00:26:22;;;;;;;7.67;5.03;;;15.60;1.00;;;;;;6261430;28;20233;-56
2022/08/29 00:29:29;;;;;;;6.03;4.83;;;15.60;1.00;;;;;;6260727;28;20833;-56
2022/08/29 00:32:33;;;;;;;6.13;5.30;;;15.50;1.00;;;;;;6270385;28;20240;-57
2022/08/29 00:35:42;;;;;;;6.70;5.00;;;15.50;1.00;;;;;;6284392;28;20518;-56
2022/08/29 00:38:45;;;;;;;6.53;4.93;;;15.50;1.00;;;;;;6284637;28;20282;-55
2022/08/29 00:41:48;;;;;;;8.57;4.73;;;15.40;1.00;;;;;;6280383;28;20385;-55
2022/08/29 00:44:52;;;;;;;6.10;5.23;;;15.50;1.00;;;;;;6259688;28;20280;-55
2022/08/29 00:48:00;;;;;;;9.07;5.10;;;15.40;1.00;;;;;;6270459;28;20383;-56
2022/08/29 00:51:07;;;;;;;5.97;4.53;;;15.40;1.00;;;;;;6284639;28;20241;-55
2022/08/29 00:54:13;;;;;;;7.33;4.63;;;15.40;1.00;;;;;;6285716;28;20370;-55
2022/08/29 00:57:21;;;;;;;6.80;5.17;;;15.40;1.00;;;;;;6285161;28;20263;-56
2022/08/29 01:00:26;;;;;;;7.10;5.07;;;15.30;1.00;;;;;;6277484;28;20284;-56
2022/08/29 01:03:32;;;;;;;9.47;5.57;;;15.30;1.00;;;;;;6276864;28;20294;-56
2022/08/29 01:06:37;;;;;;;7.20;4.97;;;15.30;1.00;;;;;;6282164;28;20302;-55
2022/08/29 01:09:44;;;;;;;8.30;5.17;;;15.20;1.00;;;;;;6271760;28;20364;-55
2022/08/29 01:12:46;;;;;;;8.67;5.23;;;15.20;1.00;;;;;;6277563;28;20592;-56
2022/08/29 01:15:51;;;;;;;5.80;4.50;;;15.20;1.00;;;;;;6285090;28;20404;-56
2022/08/29 01:19:00;;;;;;;7.37;5.00;;;15.20;1.00;;;;;;6284450;28;20386;-55
2022/08/29 01:22:09;;;;;;;7.20;5.00;;;15.20;1.00;;;;;;6280764;28;20268;-55
2022/08/29 01:25:18;;;;;;;10.27;5.30;;;15.10;1.00;;;;;;6284592;28;20304;-56
2022/08/29 01:28:25;;;;;;;13.43;5.30;;;15.10;1.00;;;;;;6283665;28;20238;-56
2022/08/29 01:31:36;;;;;;;6.60;5.07;;;15.10;1.00;;;;;;6269122;28;20373;-56
2022/08/29 01:35:00;;;;;;;10.03;5.40;;;15.10;1.00;;;;;;6284133;28;20242;-55
2022/08/29 01:38:03;;;;;;;5.17;4.67;;;15.10;1.00;;;;;;6278310;28;20233;-60
2022/08/29 01:41:08;;;;;;;6.83;4.90;;;15.10;1.00;;;;;;6259752;28;20248;-56
2022/08/29 01:44:13;;;;;;;6.47;4.73;;;15.00;1.00;;;;;;6259310;28;20325;-55
2022/08/29 01:47:17;;;;;;;5.10;4.60;;;15.10;1.00;;;;;;6259588;28;20307;-56
2022/08/29 01:50:20;;;;;;;5.23;4.83;;;15.00;1.00;;;;;;6258914;28;20467;-55
2022/08/29 01:53:23;;;;;;;8.63;5.40;;;15.00;1.00;;;;;;6260000;28;20238;-56
2022/08/29 01:56:29;;;;;;;9.80;4.80;;;15.00;1.00;;;;;;6259414;28;20367;-56
2022/08/29 01:59:33;;;;;;;4.73;4.43;;;15.00;1.00;;;;;;6258052;28;20309;-56
2022/08/29 02:02:37;;;;;;;7.13;5.23;;;14.90;1.00;;;;;;6282111;28;20445;-55
2022/08/29 02:05:41;;;;;;;8.10;5.50;;;14.90;1.00;;;;;;6277988;28;20252;-55
2022/08/29 02:08:45;;;;;;;5.57;5.10;;;14.90;1.00;;;;;;6276313;28;20320;-54
2022/08/29 02:11:51;;;;;;;6.43;5.17;;;14.90;1.00;;;;;;6272640;28;20687;-55
2022/08/29 02:14:54;;;;;;;10.90;5.00;;;14.90;1.00;;;;;;6261574;28;20642;-55
2022/08/29 02:17:57;;;;;;;9.33;5.80;;;14.80;1.00;;;;;;6257650;28;20384;-56
2022/08/29 02:21:01;;;;;;;6.77;4.93;;;14.80;1.00;;;;;;6250437;28;20298;-54
2022/08/29 02:24:06;;;;;;;8.70;5.70;;;14.80;1.00;;;;;;6257746;28;20315;-55
2022/08/29 02:27:28;;;;;;;10.33;5.77;;;14.80;1.00;;;;;;6257700;28;20249;-56
2022/08/29 02:30:30;;;;;;;8.13;5.30;;;14.80;1.00;;;;;;6253953;28;20238;-55
2022/08/29 02:33:33;;;;;;;8.67;5.00;;;14.70;1.00;;;;;;6269460;28;20229;-53
2022/08/29 02:36:37;;;;;;;8.30;5.93;;;14.70;1.00;;;;;;6282493;28;20247;-55
2022/08/29 02:39:43;;;;;;;6.90;5.20;;;14.70;1.00;;;;;;6281732;28;20237;-56
2022/08/29 02:42:48;;;;;;;6.07;5.10;;;14.70;1.00;;;;;;6274211;28;20691;-55
2022/08/29 02:45:51;;;;;;;8.33;5.57;;;14.60;1.00;;;;;;6281564;28;20375;-55
2022/08/29 02:48:54;;;;;;;5.90;5.00;;;14.60;1.00;;;;;;6281419;28;20340;-55
2022/08/29 02:52:05;;;;;;;8.90;5.40;;;14.60;1.00;;;;;;6283052;28;20241;-58
2022/08/29 02:55:12;;;;;;;9.80;5.23;;;14.50;1.00;;;;;;6270305;28;20245;-57
2022/08/29 02:58:16;;;;;;;7.83;4.70;;;14.50;1.00;;;;;;6257890;28;20321;-57
2022/08/29 03:01:20;;;;;;;14.50;5.83;;;14.50;1.00;;;;;;6258150;28;20609;-55
2022/08/29 03:04:23;;;;;;;12.13;6.40;;;14.50;1.00;;;;;;6276819;28;20256;-55
2022/08/29 03:07:28;;;;;;;7.27;5.63;;;14.50;1.00;;;;;;6283038;28;20588;-55
2022/08/29 03:10:31;;;;;;;9.20;5.47;;;14.50;1.00;;;;;;6272217;28;20381;-55
2022/08/29 03:13:35;;;;;;;7.37;5.90;;;14.50;1.00;;;;;;6256581;28;20237;-54
2022/08/29 03:16:39;;;;;;;7.77;5.87;;;14.50;1.00;;;;;;6276216;28;20360;-55
2022/08/29 03:19:42;;;;;;;7.47;5.73;;;14.50;1.00;;;;;;6282158;28;20248;-56
2022/08/29 03:22:54;;;;;;;7.90;5.43;;;14.40;1.00;;;;;;6281992;28;20316;-55
2022/08/29 03:25:58;;;;;;;6.00;5.20;;;14.40;1.00;;;;;;6259442;28;20258;-56
2022/08/29 03:29:02;;;;;;;7.30;5.10;;;14.40;1.00;;;;;;6267337;28;20248;-56
2022/08/29 03:32:06;;;;;;;7.50;5.40;;;14.40;1.00;;;;;;6267414;28;20237;-56
2022/08/29 03:35:10;;;;;;;9.17;6.00;;;14.40;1.00;;;;;;6279913;28;20237;-56
2022/08/29 03:38:13;;;;;;;6.90;5.57;;;14.30;1.00;;;;;;6279496;28;20669;-56
2022/08/29 03:41:21;;;;;;;5.77;5.27;;;14.30;1.00;;;;;;6279418;28;20819;-54
2022/08/29 03:44:26;;;;;;;5.27;4.87;;;14.30;1.00;;;;;;6279743;28;20324;-56
2022/08/29 03:47:33;;;;;;;10.17;6.20;;;14.20;1.00;;;;;;6280499;28;20371;-55
2022/08/29 03:50:36;;;;;;;8.60;6.20;;;14.20;1.00;;;;;;6274216;28;20336;-56
2022/08/29 03:53:40;;;;;;;8.37;5.50;;;14.20;1.00;;;;;;6285787;28;20714;-55
2022/08/29 03:56:44;;;;;;;6.93;6.17;;;14.10;1.00;;;;;;6277038;28;20264;-56
2022/08/29 03:59:50;;;;;;;6.17;4.93;;;14.10;1.00;;;;;;6282508;28;20236;-55
2022/08/29 04:02:57;;;;;;;13.47;6.13;;;14.10;1.00;;;;;;6284833;28;20257;-56
2022/08/29 04:06:01;;;;;;;10.33;6.13;;;14.00;1.00;;;;;;6283115;28;20237;-55
2022/08/29 04:09:04;;;;;;;13.40;5.90;;;14.00;1.00;;;;;;6278710;28;20835;-56
2022/08/29 04:12:09;;;;;;;5.93;5.40;;;14.00;1.00;;;;;;6285745;28;20821;-56
2022/08/29 04:15:14;;;;;;;7.53;5.90;;;14.00;1.00;;;;;;6276609;28;20330;-54
2022/08/29 04:18:18;;;;;;;10.57;6.03;;;13.90;1.00;;;;;;6284734;28;20608;-55
2022/08/29 04:21:24;;;;;;;5.80;5.27;;;13.90;1.00;;;;;;6282754;28;20669;-56
2022/08/29 04:24:30;;;;;;;10.90;6.00;;;13.90;1.00;;;;;;6279838;28;20237;-55
2022/08/29 04:27:35;;;;;;;10.27;5.70;;;13.90;1.00;;;;;;6280159;28;20233;-54
2022/08/29 04:30:45;;;;;;;13.30;6.57;;;13.90;1.00;;;;;;6284772;28;20245;-55
2022/08/29 04:33:53;;;;;;;11.07;6.20;;;13.90;1.00;;;;;;6277619;28;20349;-55
2022/08/29 04:36:56;;;;;;;9.73;5.80;;;13.90;1.00;;;;;;6277073;28;20364;-54
2022/08/29 04:39:59;;;;;;;6.53;5.77;;;13.90;1.00;;;;;;6280585;28;20238;-55
2022/08/29 04:43:02;;;;;;;8.70;6.10;;;14.00;1.00;;;;;;6273997;28;20237;-55
2022/08/29 04:46:07;;;;;;;10.90;6.50;;;14.00;1.00;;;;;;6282632;28;20247;-55
2022/08/29 04:49:26;;;;;;;7.30;5.93;;;14.10;1.00;;;;;;6275083;28;20233;-55
2022/08/29 04:52:29;;;;;;;10.30;5.73;;;14.20;1.00;;;;;;6285038;28;20237;-55
2022/08/29 04:55:32;;;;;;;7.70;6.47;;;14.30;1.00;;;;;;6283946;28;20284;-60
2022/08/29 04:58:36;;;;;;;11.10;6.50;;;14.30;1.00;;;;;;6283439;28;20324;-54
2022/08/29 05:01:45;;;;;;;11.80;6.80;;;14.40;1.00;;;;;;6282538;28;20268;-54
2022/08/29 05:04:51;;;;;;;9.57;5.63;;;14.40;1.00;;;;;;6253418;28;20631;-52
2022/08/29 05:07:55;;;;;;;9.93;6.40;;;14.50;1.00;;;;;;6280806;28;20350;-55
2022/08/29 05:10:58;;;;;;;10.00;6.83;;;14.50;1.00;;;;;;6283237;28;20443;-54
2022/08/29 05:14:02;;;;;;;12.27;7.13;;;14.50;1.00;;;;;;6277976;28;20632;-54
2022/08/29 05:17:06;;;;;;;9.60;6.73;;;14.60;1.00;;;;;;6280090;28;20302;-57
2022/08/29 05:20:10;;;;;;;9.63;7.50;;;14.60;1.00;;;;;;6268960;28;20245;-56
2022/08/29 05:23:14;;;;;;;15.97;7.10;;;14.60;1.00;;;;;;6272951;28;20850;-56
2022/08/29 05:26:17;;;;;;;8.27;7.57;;;14.70;1.00;;;;;;6272493;28;20375;-56
2022/08/29 05:29:20;;;;;;;16.07;8.67;;;14.70;1.00;;;;;;6268572;28;20237;-56
2022/08/29 05:32:25;;;;;;;13.67;8.77;;;14.70;1.00;;;;;;6278312;28;20290;-55
2022/08/29 05:35:28;;;;;;;9.27;8.20;;;14.80;1.00;;;;;;6271407;28;20278;-55
2022/08/29 05:38:31;;;;;;;13.47;8.33;;;14.80;1.00;;;;;;6267006;28;20233;-55
2022/08/29 05:41:33;;;;;;;15.13;8.83;;;14.80;1.00;;;;;;6276934;28;20651;-54
2022/08/29 05:44:47;;;;;;;15.87;9.23;;;14.90;1.00;;;;;;6281184;28;20717;-55
2022/08/29 05:47:51;;;;;;;19.90;9.53;;;14.90;1.00;;;;;;6281285;28;20240;-59
2022/08/29 05:50:54;;;;;;;15.37;8.77;;;15.00;1.00;;;;;;6279134;28;20306;-55
2022/08/29 05:53:57;;;;;;;17.50;9.30;;;15.10;1.00;;;;;;6282790;28;20341;-55
2022/08/29 05:57:13;;;;;;;15.00;9.43;;;15.10;1.00;;;;;;6282196;28;20236;-56
2022/08/29 06:00:21;;;;;;;13.23;9.00;;;15.30;1.00;;;;;;6278829;28;20249;-56
2022/08/29 06:03:25;;;;;;;15.63;8.37;;;15.40;1.00;;;;;;6282348;28;20310;-56
2022/08/29 06:06:29;;;;;;;12.27;8.60;;;15.50;1.00;;;;;;6280685;28;20472;-55
2022/08/29 06:09:33;;;;;;;12.80;8.83;;;15.50;1.00;;;;;;6282045;28;20324;-56
2022/08/29 06:12:36;;;;;;;10.77;7.47;;;15.60;1.00;;;;;;6281231;28;20240;-54
2022/08/29 06:15:43;;;;;;;14.93;8.10;;;15.70;1.00;;;;;;6279525;28;20274;-56
2022/08/29 06:18:47;;;;;;;13.67;8.17;;;15.80;1.00;;;;;;6272959;28;20473;-55
2022/08/29 06:21:50;;;;;;;10.77;7.43;;;15.80;1.00;;;;;;6281589;28;20447;-56
2022/08/29 06:24:56;;;;;;;11.50;7.17;;;15.90;1.00;;;;;;6275152;28;20316;-55
2022/08/29 06:28:00;;;;;;;8.17;6.97;;;16.00;1.00;;;;;;6281459;28;20237;-54
2022/08/29 06:31:06;;;;;;;13.50;7.60;;;16.00;1.00;;;;;;6280185;28;20256;-55
2022/08/29 06:34:10;;;;;;;11.73;7.03;;;16.10;1.00;;;;;;6281388;28;20240;-55
2022/08/29 06:37:13;;;;;;;10.87;7.53;;;16.20;1.00;;;;;;6282151;28;20233;-56
2022/08/29 06:40:16;;;;;;;8.27;7.00;;;16.20;1.00;;;;;;6276990;28;20851;-55
2022/08/29 06:43:19;;;;;;;12.37;7.50;;;16.20;1.00;;;;;;6282266;28;20237;-57
2022/08/29 06:46:25;;;;;;;10.87;6.80;;;16.30;1.00;;;;;;6281709;28;20237;-55
2022/08/29 06:49:31;;;;;;;13.47;8.47;;;16.30;1.00;;;;;;6273119;28;20240;-55
2022/08/29 06:52:34;;;;;;;14.70;7.80;;;16.30;1.00;;;;;;6273160;28;20225;-57
2022/08/29 06:55:38;;;;;;;16.43;7.80;;;16.20;1.00;;;;;;6281736;28;20232;-55
2022/08/29 06:58:41;;;;;;;9.57;7.70;;;16.30;1.00;;;;;;6280605;28;20722;-55
2022/08/29 07:01:45;;;;;;;18.40;8.27;;;16.20;1.00;;;;;;6278077;28;20252;-55
2022/08/29 07:04:51;;;;;;;13.83;8.40;;;16.20;1.00;;;;;;6280969;28;20237;-55
2022/08/29 07:07:54;;;;;;;12.50;7.70;;;16.30;1.00;;;;;;6277341;28;20497;-54
2022/08/29 07:10:57;;;;;;;15.87;7.43;;;16.40;1.00;;;;;;6281186;28;20302;-56
2022/08/29 07:14:03;;;;;;;16.33;7.77;;;16.50;1.00;;;;;;6281323;28;20286;-55
2022/08/29 07:17:06;;;;;;;18.17;7.53;;;16.50;1.00;;;;;;6273402;28;20643;-54
2022/08/29 07:20:11;;;;;;;12.73;7.90;;;16.60;1.00;;;;;;6280908;28;20366;-54
2022/08/29 07:23:14;;;;;;;12.43;7.50;;;16.60;1.00;;;;;;6279205;28;20632;-55
2022/08/29 07:26:19;;;;;;;11.63;6.97;;;16.70;1.00;;;;;;6280854;28;20871;-55
2022/08/29 07:29:23;;;;;;;15.67;8.27;;;16.80;1.00;;;;;;6282849;28;20317;-54
2022/08/29 07:32:26;;;;;;;14.20;7.50;;;16.80;1.00;;;;;;6286968;28;20349;-55
2022/08/29 07:35:32;;;;;;;13.80;7.20;;;16.90;1.00;;;;;;6284574;28;20366;-55
2022/08/29 07:38:35;;;;;;;13.03;7.60;;;16.90;1.00;;;;;;6281749;28;20496;-49
2022/08/29 07:41:39;;;;;;;15.07;7.43;;;16.90;1.00;;;;;;6285358;28;20237;-54
2022/08/29 07:44:42;;;;;;;9.20;6.73;;;16.90;1.00;;;;;;6282082;28;20234;-55
2022/08/29 07:47:48;;;;;;;11.67;7.00;;;16.90;1.00;;;;;;6285403;28;20594;-55
2022/08/29 07:50:52;;;;;;;10.30;7.83;;;16.90;1.00;;;;;;6281538;28;20340;-56
2022/08/29 07:53:59;;;;;;;8.60;7.07;;;16.90;1.00;;;;;;6280325;28;20845;-54
2022/08/29 07:57:03;;;;;;;12.93;7.33;;;16.80;1.00;;;;;;6285290;28;20241;-55
2022/08/29 08:00:08;;;;;;;12.50;7.10;;;16.80;1.00;;;;;;6283807;28;20230;-55
2022/08/29 08:03:13;;;;;;;11.73;7.63;;;16.80;1.00;;;;;;6285206;28;20804;-55
2022/08/29 08:06:18;;;;;;;9.90;7.03;;;16.90;1.00;;;;;;6285149;28;20233;-58
2022/08/29 08:09:21;;;;;;;10.70;7.03;;;17.00;1.00;;;;;;6280130;28;20245;-54
2022/08/29 08:12:25;;;;;;;13.93;6.97;;;17.00;1.00;;;;;;6285471;28;20319;-55
2022/08/29 08:15:28;;;;;;;12.40;7.43;;;17.00;1.00;;;;;;6284204;28;20511;-55
2022/08/29 08:18:31;;;;;;;9.27;7.33;;;17.00;1.00;;;;;;6282696;28;20607;-55
2022/08/29 08:21:36;;;;;;;14.47;7.70;;;17.10;1.00;;;;;;6279212;28;20333;-52
2022/08/29 08:24:47;;;;;;;11.80;7.33;;;17.30;1.00;;;;;;6284509;28;20237;-55
2022/08/29 08:27:58;;;;;;;11.33;7.73;;;17.50;1.00;;;;;;6278211;28;20693;-55
2022/08/29 08:31:03;;;;;;;11.43;8.10;;;17.50;1.00;;;;;;6284306;28;20696;-56
2022/08/29 08:34:08;;;;;;;13.53;7.10;;;17.60;1.00;;;;;;6283061;28;20360;-55
2022/08/29 08:37:16;;;;;;;9.50;7.20;;;17.70;1.00;;;;;;6284345;28;20241;-55
2022/08/29 08:40:31;;;;;;;11.93;7.23;;;17.70;1.00;;;;;;6284286;28;20337;-54
2022/08/29 08:43:44;;;;;;;11.37;6.87;;;17.80;1.00;;;;;;6278897;28;20383;-55
2022/08/29 08:46:51;;;;;;;10.57;7.23;;;17.80;1.00;;;;;;6279495;28;20616;-56
2022/08/29 08:49:59;;;;;;;10.37;7.40;;;17.90;1.00;;;;;;6276438;28;20251;-53
2022/08/29 08:53:21;;;;;;;12.33;6.47;;;18.00;1.00;;;;;;6278900;28;20328;-55
2022/08/29 08:56:31;;;;;;;11.63;6.67;;;18.10;1.00;;;;;;6283276;28;20237;-56
2022/08/29 08:59:40;;;;;;;8.53;7.00;;;18.10;1.00;;;;;;6278562;28;20885;-54
2022/08/29 09:02:54;;;;;;;8.13;6.40;;;18.20;1.00;;;;;;6283210;28;20596;-54
2022/08/29 09:06:09;;;;;;;6.90;6.20;;;18.20;1.00;;;;;;6277819;28;20563;-56
2022/08/29 09:09:23;;;;;;;10.07;6.67;;;18.20;1.00;;;;;;6280181;28;20243;-55
2022/08/29 09:12:37;;;;;;;9.53;6.30;;;18.10;1.00;;;;;;6283636;28;20411;-55
2022/08/29 09:15:43;;;;;;;8.10;6.97;;;18.20;1.00;;;;;;6282107;28;20233;-55
2022/08/29 09:18:49;;;;;;;9.50;6.47;;;18.20;1.00;;;;;;6279257;28;20245;-54
2022/08/29 09:22:08;;;;;;;9.83;6.87;;;18.30;1.00;;;;;;6279248;28;20234;-57
2022/08/29 09:25:13;;;;;;;9.67;6.93;;;18.50;1.00;;;;;;6282566;28;20238;-55
2022/08/29 09:28:16;;;;;;;7.47;6.40;;;18.70;1.00;;;;;;6282762;28;20237;-56
2022/08/29 09:31:23;;;;;;;9.63;6.57;;;18.90;1.00;;;;;;6281832;28;20253;-55
2022/08/29 09:34:34;;;;;;;8.03;6.43;;;19.00;1.00;;;;;;6277726;28;20743;-56
2022/08/29 09:38:00;;;;;;;7.60;6.23;;;19.20;1.00;;;;;;6254372;28;20239;-54
2022/08/29 09:41:09;;;;;;;7.17;6.47;;;19.30;1.00;;;;;;6280320;28;20245;-55
2022/08/29 09:44:20;;;;;;;8.33;6.97;;;19.40;1.00;;;;;;6281738;28;20721;-55
2022/08/29 09:47:25;;;;;;;7.97;6.60;;;19.40;1.00;;;;;;6277105;28;20767;-55
2022/08/29 09:50:28;;;;;;;9.00;6.43;;;19.30;1.00;;;;;;6278813;28;20257;-55
2022/08/29 09:53:32;;;;;;;7.27;6.63;;;19.30;1.00;;;;;;6282558;28;20738;-55
2022/08/29 09:56:39;;;;;;;7.50;6.67;;;19.40;1.00;;;;;;6281871;28;20298;-56
2022/08/29 09:59:44;;;;;;;7.20;6.60;;;19.40;1.00;;;;;;6279890;28;20788;-56
2022/08/29 10:02:53;;;;;;;11.60;6.50;;;19.30;1.00;;;;;;6280619;28;20691;-56
2022/08/29 10:06:14;;;;;;;8.40;6.87;;;19.30;1.00;;;;;;6278803;28;20253;-55
2022/08/29 10:09:26;;;;;;;11.67;6.83;;;19.20;1.00;;;;;;6283555;28;20297;-61
2022/08/29 10:12:38;;;;;;;11.03;6.30;;;19.20;1.00;;;;;;6282902;28;20261;-56
2022/08/29 10:15:45;;;;;;;10.30;7.03;;;19.10;1.00;;;;;;6280955;28;20734;-56
2022/08/29 10:18:57;;;;;;;8.93;5.67;;;19.10;1.00;;;;;;6281037;28;20225;-56
2022/08/29 10:22:12;;;;;;;7.27;6.57;;;19.20;1.00;;;;;;6273014;28;20324;-58
2022/08/29 10:25:22;;;;;;;6.93;6.30;;;19.40;1.00;;;;;;6282445;28;20328;-56
2022/08/29 10:28:32;;;;;;;7.90;7.20;;;19.60;1.00;;;;;;6278693;28;20238;-59
2022/08/29 10:31:43;;;;;;;7.20;6.33;;;19.70;1.00;;;;;;6278684;28;20244;-53
2022/08/29 10:35:03;;;;;;;7.80;6.83;;;19.70;1.00;;;;;;6278416;28;20276;-56
2022/08/29 10:38:14;;;;;;;8.43;6.70;;;19.70;1.00;;;;;;6271786;28;20745;-56
2022/08/29 10:41:29;;;;;;;9.80;6.93;;;19.70;1.00;;;;;;6276917;28;20828;-57
2022/08/29 10:44:40;;;;;;;8.00;7.20;;;19.80;1.00;;;;;;6280927;28;20267;-57
2022/08/29 10:47:52;;;;;;;7.63;6.90;;;19.80;1.00;;;;;;6274886;28;20332;-56
2022/08/29 10:51:10;;;;;;;7.80;7.07;;;19.90;1.00;;;;;;6280243;28;20382;-55
2022/08/29 10:54:28;;;;;;;6.87;6.23;;;20.00;1.00;;;;;;6281638;28;20337;-57
2022/08/29 10:57:44;;;;;;;7.23;6.63;;;20.10;1.00;;;;;;6280587;28;20403;-56
2022/08/29 11:00:54;;;;;;;7.00;6.23;;;20.30;1.00;;;;;;6279486;28;20404;-57
2022/08/29 11:04:17;;;;;;;7.53;6.90;;;20.40;1.00;;;;;;6279209;28;20241;-55
2022/08/29 11:07:27;;;;;;;8.70;7.10;;;20.40;1.00;;;;;;6280469;28;20249;-56
2022/08/29 11:10:39;;;;;;;7.80;7.10;;;20.40;1.00;;;;;;6281125;28;20261;-56
2022/08/29 11:13:49;;;;;;;7.30;6.50;;;20.60;1.00;;;;;;6280150;28;20294;-56
2022/08/29 11:16:56;;;;;;;12.90;6.37;;;20.80;1.00;;;;;;6272917;28;20781;-56
2022/08/29 11:20:10;;;;;;;7.37;6.33;;;20.90;1.00;;;;;;6280410;28;20370;-55
2022/08/29 11:23:25;;;;;;;8.30;7.37;;;20.90;1.00;;;;;;6280729;28;20229;-56
2022/08/29 11:26:41;;;;;;;8.20;6.53;;;21.00;1.00;;;;;;6278581;28;20479;-56
2022/08/29 11:29:49;;;;;;;7.70;6.97;;;21.00;1.00;;;;;;6280059;28;20248;-55
2022/08/29 11:33:04;;;;;;;6.73;6.13;;;21.00;1.00;;;;;;6277781;28;20232;-55
2022/08/29 11:36:27;;;;;;;8.60;6.87;;;21.10;1.00;;;;;;6280386;28;20242;-56
2022/08/29 11:39:49;;;;;;;7.43;6.73;;;21.00;1.00;;;;;;6279844;28;20301;-56
2022/08/29 11:42:52;;;;;;;8.57;6.30;;;21.00;1.00;;;;;;6279077;28;20746;-56
2022/08/29 11:46:00;;;;;;;7.37;6.67;;;21.10;1.00;;;;;;6280066;28;20248;-56
2022/08/29 11:49:34;;;;;;;7.17;6.57;;;21.40;1.00;;;;;;6279878;28;20233;-56
2022/08/29 11:52:49;;;;;;;9.50;6.90;;;21.60;1.00;;;;;;6280061;28;20272;-55
2022/08/29 11:56:29;;;;;;;7.40;6.53;;;21.70;1.00;;;;;;6281920;28;20788;-56
2022/08/29 11:59:58;;;;;;;7.20;6.60;;;21.70;1.00;;;;;;6273419;28;20435;-57
2022/08/29 12:03:01;;;;;;;7.13;6.53;;;21.60;1.00;;;;;;6271472;28;20794;-57
2022/08/29 12:06:54;;;;;;;6.70;6.17;;;21.70;1.00;;;;;;6280283;28;20324;-55
2022/08/29 12:09:59;;;;;;;7.60;5.80;;;22.00;1.00;;;;;;6270545;28;20318;-56
2022/08/29 12:13:04;;;;;;;6.10;5.70;;;22.20;1.00;;;;;;6284158;28;20287;-56
2022/08/29 12:16:09;;;;;;;8.17;6.50;;;22.20;1.00;;;;;;6283823;28;20364;-55
2022/08/29 12:19:32;;;;;;;8.13;6.33;;;22.30;1.00;;;;;;6284841;28;20233;-56
2022/08/29 12:22:52;;;;;;;8.17;6.10;;;22.30;1.00;;;;;;6284722;28;20829;-55
2022/08/29 12:26:04;;;;;;;6.93;6.10;;;22.40;1.00;;;;;;6278489;28;20226;-56
2022/08/29 12:29:32;;;;;;;8.27;5.53;;;22.50;1.00;;;;;;6267014;28;20241;-57
2022/08/29 12:32:59;;;;;;;6.60;5.90;;;22.30;1.00;;;;;;6284112;28;20710;-57
2022/08/29 12:36:24;;;;;;;6.20;5.67;;;22.30;1.00;;;;;;6282059;28;20428;-55
2022/08/29 12:39:49;;;;;;;7.13;6.07;;;22.40;1.00;;;;;;6282204;28;20251;-57
2022/08/29 12:43:17;;;;;;;6.57;5.67;;;22.30;1.00;;;;;;6284107;28;20285;-56
2022/08/29 12:46:26;;;;;;;6.77;6.17;;;22.20;1.00;;;;;;6279449;28;20914;-56
2022/08/29 12:49:35;;;;;;;6.70;6.00;;;22.20;1.00;;;;;;6274962;28;20733;-56
2022/08/29 12:52:38;;;;;;;6.27;5.87;;;22.10;1.00;;;;;;6284034;28;20252;-55
2022/08/29 12:55:46;;;;;;;6.07;5.67;;;22.10;1.00;;;;;;6283572;28;20237;-55
2022/08/29 12:58:55;;;;;;;5.93;5.43;;;22.20;1.00;;;;;;6279773;28;20363;-55
2022/08/29 13:01:59;;;;;;;5.87;5.53;;;22.40;1.00;;;;;;6285325;28;20306;-54
2022/08/29 13:05:16;;;;;;;6.27;5.60;;;22.50;1.00;;;;;;6282980;28;20661;-55
2022/08/29 13:08:28;;;;;;;7.23;6.60;;;22.60;1.00;;;;;;6278345;28;20282;-55
2022/08/29 13:11:33;;;;;;;7.20;6.60;;;22.70;1.00;;;;;;6278070;28;20233;-55
2022/08/29 13:14:47;;;;;;;6.93;5.80;;;22.70;1.00;;;;;;6282593;28;20294;-56
2022/08/29 13:17:51;;;;;;;8.30;6.10;;;22.60;1.00;;;;;;6283272;28;20315;-56
2022/08/29 13:21:12;;;;;;;6.50;5.90;;;22.50;1.00;;;;;;6275881;28;20328;-56
2022/08/29 13:24:19;;;;;;;5.77;5.30;;;22.40;1.00;;;;;;6282362;28;20228;-56
2022/08/29 13:27:23;;;;;;;5.83;5.40;;;22.40;1.00;;;;;;6281292;28;20245;-56
2022/08/29 13:30:26;;;;;;;7.43;5.77;;;22.40;1.00;;;;;;6282440;28;20809;-56
2022/08/29 13:33:29;;;;;;;6.80;6.13;;;22.40;1.00;;;;;;6280766;28;20325;-55
2022/08/29 13:36:40;;;;;;;6.63;5.80;;;22.50;1.00;;;;;;6282723;28;20241;-55
2022/08/29 13:39:46;;;;;;;5.43;5.13;;;22.50;1.00;;;;;;6282635;28;20369;-56
2022/08/29 13:42:50;;;;;;;7.60;5.90;;;22.50;1.00;;;;;;6277217;28;20710;-56
2022/08/29 13:46:05;;;;;;;5.53;5.23;;;22.60;1.00;;;;;;6276322;28;20230;-58
2022/08/29 13:49:20;;;;;;;6.73;6.13;;;22.70;1.00;;;;;;6280755;28;20230;-56
2022/08/29 13:52:23;;;;;;;5.40;5.10;;;22.80;1.00;;;;;;6280162;28;20556;-57
2022/08/29 13:55:33;;;;;;;5.47;5.00;;;22.80;1.00;;;;;;6279700;28;20589;-56
2022/08/29 13:58:38;;;;;;;5.97;5.50;;;23.00;1.00;;;;;;6282357;28;20945;-56
2022/08/29 14:01:41;;;;;;;5.30;5.00;;;23.20;1.00;;;;;;6278572;28;20725;-56
2022/08/29 14:05:04;;;;;;;5.30;4.93;;;23.30;1.00;;;;;;6256190;28;20237;-56
2022/08/29 14:08:07;;;;;;;6.37;5.77;;;23.60;1.00;;;;;;6277675;28;20476;-56
2022/08/29 14:11:11;;;;;;;6.20;5.70;;;23.60;1.00;;;;;;6275425;28;20320;-56
2022/08/29 14:14:16;;;;;;;9.97;5.67;;;23.70;1.00;;;;;;6275187;28;20860;-57
2022/08/29 14:17:19;;;;;;;5.50;5.20;;;23.80;1.00;;;;;;6276787;28;20918;-57
2022/08/29 14:20:23;;;;;;;5.13;4.73;;;23.60;1.00;;;;;;6278557;28;20286;-57
2022/08/29 14:23:25;;;;;;;9.30;5.77;;;23.50;1.00;;;;;;6276448;28;20665;-55
2022/08/29 14:26:28;;;;;;;5.23;4.87;;;23.40;1.00;;;;;;6279403;28;20253;-56
2022/08/29 14:29:34;;;;;;;4.73;4.47;;;23.20;1.00;;;;;;6278901;28;20274;-56
2022/08/29 14:32:38;;;;;;;5.73;5.17;;;23.10;1.00;;;;;;6279528;28;20380;-56
2022/08/29 14:35:41;;;;;;;6.00;5.43;;;23.00;1.00;;;;;;6281376;28;20331;-56
2022/08/29 14:38:45;;;;;;;4.63;4.43;;;23.00;1.00;;;;;;6278696;28;20241;-59
2022/08/29 14:41:48;;;;;;;5.00;4.63;;;23.10;1.00;;;;;;6278805;28;20733;-60
2022/08/29 14:44:54;;;;;;;5.10;4.60;;;23.20;1.00;;;;;;6276836;28;20510;-56
2022/08/29 14:47:57;;;;;;;4.10;3.90;;;23.30;1.00;;;;;;6277471;28;20234;-56
2022/08/29 14:51:00;;;;;;;5.30;4.90;;;23.20;1.00;;;;;;6279208;28;20255;-57
2022/08/29 14:54:03;;;;;;;4.67;4.00;;;23.20;1.00;;;;;;6269012;28;20324;-56
2022/08/29 14:57:06;;;;;;;4.40;4.00;;;23.50;1.00;;;;;;6278273;28;20731;-55
2022/08/29 15:00:14;;;;;;;4.70;4.30;;;23.70;1.00;;;;;;6278797;28;20275;-57
2022/08/29 15:03:17;;;;;;;4.43;4.13;;;23.90;1.00;;;;;;6272834;28;20730;-57
2022/08/29 15:06:20;;;;;;;6.27;4.23;;;23.90;1.00;;;;;;6279559;28;20240;-55
2022/08/29 15:09:23;;;;;;;3.73;3.63;;;23.80;1.00;;;;;;6278388;28;20327;-57
2022/08/29 15:12:33;;;;;;;3.50;3.40;;;23.70;1.00;;;;;;6276151;28;20229;-59
2022/08/29 15:15:37;;;;;;;3.83;3.63;;;23.80;1.00;;;;;;6276724;28;21001;-56
2022/08/29 15:18:40;;;;;;;4.00;3.80;;;23.60;1.00;;;;;;6269841;28;20252;-56
2022/08/29 15:22:04;;;;;;;4.43;3.80;;;23.60;1.00;;;;;;6274840;28;20237;-56
2022/08/29 15:25:08;;;;;;;3.33;3.13;;;23.60;1.00;;;;;;6277747;28;20307;-56
2022/08/29 15:28:12;;;;;;;3.73;3.43;;;23.60;1.00;;;;;;6277478;28;20237;-57
2022/08/29 15:31:17;;;;;;;4.37;3.97;;;23.60;1.00;;;;;;6279040;28;20337;-56
2022/08/29 15:34:20;;;;;;;4.13;3.73;;;23.50;1.00;;;;;;6278093;28;20733;-56
2022/08/29 15:37:23;;;;;;;3.90;3.70;;;23.60;1.00;;;;;;6278569;28;20229;-57
2022/08/29 15:40:27;;;;;;;3.97;3.73;;;23.70;1.00;;;;;;6278838;28;20782;-56
2022/08/29 15:43:30;;;;;;;4.10;3.90;;;23.60;1.00;;;;;;6278065;28;20698;-56
2022/08/29 15:46:35;;;;;;;4.30;3.50;;;23.60;1.00;;;;;;6281851;28;20326;-57
2022/08/29 15:49:39;;;;;;;3.67;3.37;;;23.60;1.00;;;;;;6282683;28;20237;-56
2022/08/29 15:52:43;;;;;;;3.60;3.33;;;23.70;1.00;;;;;;6282258;28;20382;-56
2022/08/29 15:55:49;;;;;;;3.80;3.50;;;23.70;1.00;;;;;;6282927;28;20321;-57
2022/08/29 15:58:52;;;;;;;3.73;3.53;;;23.70;1.00;;;;;;6277048;28;20438;-54
2022/08/29 16:01:56;;;;;;;3.70;3.50;;;23.70;1.00;;;;;;6282594;28;20328;-56
2022/08/29 16:05:00;;;;;;;3.17;3.07;;;23.60;1.00;;;;;;6282517;28;20799;-57
2022/08/29 16:08:04;;;;;;;3.80;3.60;;;23.50;1.00;;;;;;6282596;28;20264;-57
2022/08/29 16:11:13;;;;;;;4.30;3.63;;;23.40;1.00;;;;;;6281178;28;20529;-56
2022/08/29 16:14:17;;;;;;;3.50;3.30;;;23.40;1.00;;;;;;6282195;28;20332;-56
2022/08/29 16:17:41;;;;;;;3.00;2.90;;;23.40;1.00;;;;;;6282465;28;20252;-56
2022/08/29 16:20:45;;;;;;;3.10;3.00;;;23.20;1.00;;;;;;6281298;28;20700;-56
2022/08/29 16:23:48;;;;;;;2.77;2.73;;;23.00;1.00;;;;;;6280032;28;20247;-56
2022/08/29 16:26:51;;;;;;;2.70;2.60;;;22.90;1.00;;;;;;6283019;28;20486;-56